createdAt,value
2019-01-15T00:00:14.489Z,0.00
2019-01-15T00:01:14.470Z,0.00
2019-01-15T00:02:14.467Z,0.00
2019-01-15T00:03:14.467Z,0.00
2019-01-15T00:04:14.453Z,0.00
2019-01-15T00:05:14.439Z,0.00
2019-01-15T00:06:14.438Z,0.00
2019-01-15T00:07:14.418Z,0.00
2019-01-15T00:08:14.430Z,0.00
2019-01-15T00:09:14.456Z,0.00
2019-01-15T00:10:14.363Z,0.00
2019-01-15T00:11:14.362Z,0.00
2019-01-15T00:12:14.367Z,0.00
2019-01-15T00:13:14.438Z,0.00
2019-01-15T00:14:14.353Z,0.00
2019-01-15T00:15:14.305Z,0.00
2019-01-15T00:16:14.293Z,0.00
2019-01-15T00:17:14.304Z,0.00
2019-01-15T00:18:14.287Z,0.00
2019-01-15T00:19:14.293Z,0.00
2019-01-15T00:20:14.246Z,0.00
2019-01-15T00:21:14.266Z,0.00
2019-01-15T00:22:14.231Z,0.00
2019-01-15T00:23:14.230Z,0.00
2019-01-15T00:24:14.202Z,0.00
2019-01-15T00:25:14.202Z,0.00
2019-01-15T00:26:14.176Z,0.00
2019-01-15T00:27:14.175Z,0.00
2019-01-15T00:28:14.178Z,0.00
2019-01-15T00:29:14.154Z,0.00
2019-01-15T00:30:14.131Z,0.00
2019-01-15T00:31:14.126Z,0.00
2019-01-15T00:32:14.173Z,0.00
2019-01-15T00:33:14.134Z,0.00
2019-01-15T00:34:14.094Z,0.00
2019-01-15T00:35:14.075Z,0.00
2019-01-15T00:36:14.079Z,0.00
2019-01-15T00:37:14.088Z,0.00
2019-01-15T00:38:14.057Z,0.00
2019-01-15T00:39:14.033Z,0.00
2019-01-15T00:40:14.018Z,0.00
2019-01-15T00:41:14.139Z,0.00
2019-01-15T00:42:15.499Z,0.00
2019-01-15T00:43:14.019Z,0.00
2019-01-15T00:44:13.978Z,0.00
2019-01-15T00:45:13.967Z,0.00
2019-01-15T00:46:13.966Z,0.00
2019-01-15T00:47:13.966Z,0.00
2019-01-15T00:48:13.963Z,0.00
2019-01-15T00:49:13.916Z,0.00
2019-01-15T00:50:13.901Z,0.00
2019-01-15T00:51:13.960Z,0.00
2019-01-15T00:52:13.895Z,0.00
2019-01-15T00:53:13.883Z,0.00
2019-01-15T00:54:13.863Z,0.00
2019-01-15T00:55:13.848Z,0.00
2019-01-15T00:56:13.841Z,0.00
2019-01-15T00:57:13.819Z,0.00
2019-01-15T00:58:13.853Z,0.00
2019-01-15T00:59:13.807Z,0.00
2019-01-15T01:00:13.799Z,0.00
2019-01-15T01:01:13.782Z,0.00
2019-01-15T01:02:13.772Z,0.00
2019-01-15T01:03:13.764Z,0.00
2019-01-15T01:04:13.749Z,0.00
2019-01-15T01:05:13.735Z,0.00
2019-01-15T01:06:13.720Z,0.00
2019-01-15T01:07:13.714Z,0.00
2019-01-15T01:08:13.712Z,0.00
2019-01-15T01:09:13.703Z,0.00
2019-01-15T01:10:13.691Z,0.00
2019-01-15T01:11:13.675Z,0.00
2019-01-15T01:12:13.660Z,0.00
2019-01-15T01:13:13.689Z,0.00
2019-01-15T01:14:13.660Z,0.00
2019-01-15T01:15:13.615Z,0.00
2019-01-15T01:16:13.611Z,0.00
2019-01-15T01:17:13.628Z,0.00
2019-01-15T01:18:13.581Z,0.00
2019-01-15T01:19:13.612Z,0.00
2019-01-15T01:20:13.572Z,0.00
2019-01-15T01:21:13.557Z,0.00
2019-01-15T01:22:13.566Z,0.00
2019-01-15T01:23:13.531Z,0.00
2019-01-15T01:24:13.534Z,0.00
2019-01-15T01:25:13.497Z,0.00
2019-01-15T01:26:13.505Z,0.00
2019-01-15T01:27:13.479Z,0.00
2019-01-15T01:28:13.476Z,0.00
2019-01-15T01:29:13.467Z,0.00
2019-01-15T01:30:13.449Z,0.00
2019-01-15T01:31:13.456Z,0.00
2019-01-15T01:32:13.437Z,0.00
2019-01-15T01:33:13.414Z,0.00
2019-01-15T01:34:13.412Z,0.00
2019-01-15T01:35:13.402Z,0.00
2019-01-15T01:36:13.376Z,0.00
2019-01-15T01:37:13.374Z,0.00
2019-01-15T01:38:13.349Z,0.00
2019-01-15T01:39:13.370Z,0.00
2019-01-15T01:40:13.358Z,0.00
2019-01-15T01:41:13.318Z,0.00
2019-01-15T01:42:13.314Z,0.00
2019-01-15T01:43:13.306Z,0.00
2019-01-15T01:44:13.298Z,0.00
2019-01-15T01:45:13.272Z,0.00
2019-01-15T01:46:13.304Z,0.00
2019-01-15T01:47:13.253Z,0.00
2019-01-15T01:48:13.241Z,0.00
2019-01-15T01:49:13.244Z,0.00
2019-01-15T01:50:13.228Z,0.00
2019-01-15T01:51:13.207Z,0.00
2019-01-15T01:52:13.190Z,0.00
2019-01-15T01:53:13.211Z,0.00
2019-01-15T01:54:13.184Z,0.00
2019-01-15T01:55:13.163Z,0.00
2019-01-15T01:56:13.140Z,0.00
2019-01-15T01:57:13.138Z,0.00
2019-01-15T01:58:13.124Z,0.00
2019-01-15T01:59:13.134Z,0.00
2019-01-15T02:00:13.107Z,0.00
2019-01-15T02:01:13.088Z,0.00
2019-01-15T02:02:13.128Z,0.00
2019-01-15T02:03:13.063Z,0.00
2019-01-15T02:04:13.065Z,0.00
2019-01-15T02:05:13.060Z,0.00
2019-01-15T02:06:13.027Z,0.00
2019-01-15T02:07:13.016Z,0.00
2019-01-15T02:08:13.033Z,0.00
2019-01-15T02:09:13.016Z,0.00
2019-01-15T02:10:12.992Z,0.00
2019-01-15T02:11:12.972Z,0.00
2019-01-15T02:12:12.954Z,0.00
2019-01-15T02:13:12.979Z,0.00
2019-01-15T02:14:12.975Z,0.00
2019-01-15T02:15:12.935Z,0.00
2019-01-15T02:16:12.934Z,0.00
2019-01-15T02:17:12.928Z,0.00
2019-01-15T02:18:12.909Z,0.00
2019-01-15T02:19:12.893Z,0.00
2019-01-15T02:20:12.866Z,0.00
2019-01-15T02:21:12.859Z,0.00
2019-01-15T02:22:12.846Z,0.00
2019-01-15T02:23:12.842Z,0.00
2019-01-15T02:24:12.846Z,0.00
2019-01-15T02:25:12.854Z,0.00
2019-01-15T02:26:12.797Z,0.00
2019-01-15T02:27:12.789Z,0.00
2019-01-15T02:28:12.785Z,0.00
2019-01-15T02:29:12.787Z,0.00
2019-01-15T02:30:12.757Z,0.00
2019-01-15T02:31:12.754Z,0.00
2019-01-15T02:32:12.744Z,0.00
2019-01-15T02:33:12.753Z,0.00
2019-01-15T02:34:12.715Z,0.00
2019-01-15T02:35:12.702Z,0.00
2019-01-15T02:36:12.697Z,0.00
2019-01-15T02:37:12.675Z,0.00
2019-01-15T02:38:12.668Z,0.00
2019-01-15T02:39:12.672Z,0.00
2019-01-15T02:40:12.755Z,0.00
2019-01-15T02:41:12.641Z,0.00
2019-01-15T02:42:12.615Z,0.00
2019-01-15T02:43:12.625Z,0.00
2019-01-15T02:44:12.624Z,0.00
2019-01-15T02:45:12.593Z,0.00
2019-01-15T02:46:12.585Z,0.00
2019-01-15T02:47:12.560Z,0.00
2019-01-15T02:48:12.549Z,0.00
2019-01-15T02:49:12.595Z,0.00
2019-01-15T02:50:12.527Z,0.00
2019-01-15T02:51:12.523Z,0.00
2019-01-15T02:52:12.520Z,0.00
2019-01-15T02:53:12.487Z,0.00
2019-01-15T02:54:12.498Z,0.00
2019-01-15T02:55:12.474Z,0.00
2019-01-15T02:56:12.484Z,0.00
2019-01-15T02:57:12.450Z,0.00
2019-01-15T02:58:12.433Z,0.00
2019-01-15T02:59:12.439Z,0.00
2019-01-15T03:00:12.406Z,0.00
2019-01-15T03:01:12.394Z,0.00
2019-01-15T03:02:12.396Z,0.00
2019-01-15T03:03:12.392Z,0.00
2019-01-15T03:04:12.382Z,0.00
2019-01-15T03:05:12.370Z,0.00
2019-01-15T03:06:12.357Z,0.00
2019-01-15T03:07:12.341Z,0.00
2019-01-15T03:08:12.321Z,0.00
2019-01-15T03:09:12.320Z,0.00
2019-01-15T03:10:12.295Z,0.00
2019-01-15T03:11:12.298Z,0.00
2019-01-15T03:12:12.276Z,0.00
2019-01-15T03:13:12.266Z,0.00
2019-01-15T03:14:12.299Z,0.00
2019-01-15T03:15:12.233Z,0.00
2019-01-15T03:16:12.223Z,0.00
2019-01-15T03:17:12.218Z,0.00
2019-01-15T03:18:12.231Z,0.00
2019-01-15T03:19:12.193Z,0.00
2019-01-15T03:20:12.205Z,0.00
2019-01-15T03:21:12.169Z,0.00
2019-01-15T03:22:12.162Z,0.00
2019-01-15T03:23:12.153Z,0.00
2019-01-15T03:24:12.128Z,0.00
2019-01-15T03:25:12.150Z,0.00
2019-01-15T03:26:12.122Z,0.00
2019-01-15T03:27:12.096Z,0.00
2019-01-15T03:28:12.093Z,0.00
2019-01-15T03:29:12.093Z,0.00
2019-01-15T03:30:12.096Z,0.00
2019-01-15T03:31:12.059Z,0.00
2019-01-15T03:32:12.094Z,0.00
2019-01-15T03:33:12.038Z,0.00
2019-01-15T03:34:12.021Z,0.00
2019-01-15T03:35:12.038Z,0.00
2019-01-15T03:36:12.049Z,0.00
2019-01-15T03:37:11.992Z,0.00
2019-01-15T03:38:11.969Z,0.00
2019-01-15T03:39:11.958Z,0.00
2019-01-15T03:40:11.967Z,0.00
2019-01-15T03:41:11.974Z,0.00
2019-01-15T03:42:11.931Z,0.00
2019-01-15T03:43:11.912Z,0.00
2019-01-15T03:44:11.900Z,0.00
2019-01-15T03:45:11.914Z,0.00
2019-01-15T03:46:11.876Z,0.00
2019-01-15T03:47:11.909Z,0.00
2019-01-15T03:48:11.859Z,0.00
2019-01-15T03:49:11.846Z,0.00
2019-01-15T03:50:11.849Z,0.00
2019-01-15T03:51:11.821Z,0.00
2019-01-15T03:52:11.807Z,0.00
2019-01-15T03:53:11.822Z,0.00
2019-01-15T03:54:11.784Z,0.00
2019-01-15T03:55:11.797Z,0.00
2019-01-15T03:56:11.763Z,0.00
2019-01-15T03:57:11.751Z,0.00
2019-01-15T03:58:11.741Z,0.00
2019-01-15T03:59:11.757Z,0.00
2019-01-15T04:00:11.760Z,0.00
2019-01-15T04:01:11.704Z,0.00
2019-01-15T04:02:11.726Z,0.00
2019-01-15T04:03:11.690Z,0.00
2019-01-15T04:04:11.673Z,0.00
2019-01-15T04:05:11.704Z,0.00
2019-01-15T04:06:11.667Z,0.00
2019-01-15T04:07:11.634Z,0.00
2019-01-15T04:08:11.623Z,0.00
2019-01-15T04:09:11.611Z,0.00
2019-01-15T04:10:11.624Z,0.00
2019-01-15T04:11:11.590Z,0.00
2019-01-15T04:12:11.612Z,0.00
2019-01-15T04:13:11.696Z,0.00
2019-01-15T04:14:11.575Z,0.00
2019-01-15T04:15:11.572Z,0.00
2019-01-15T04:16:11.547Z,0.00
2019-01-15T04:17:11.534Z,0.00
2019-01-15T04:18:11.527Z,0.00
2019-01-15T04:19:11.516Z,0.00
2019-01-15T04:20:11.581Z,0.00
2019-01-15T04:21:11.497Z,0.00
2019-01-15T04:22:11.478Z,0.00
2019-01-15T04:23:11.468Z,0.00
2019-01-15T04:24:11.461Z,0.00
2019-01-15T04:25:11.460Z,0.00
2019-01-15T04:26:11.428Z,0.00
2019-01-15T04:27:11.411Z,0.00
2019-01-15T04:28:11.401Z,0.00
2019-01-15T04:29:11.400Z,0.00
2019-01-15T04:30:11.404Z,0.00
2019-01-15T04:31:11.361Z,0.00
2019-01-15T04:32:11.353Z,0.00
2019-01-15T04:33:11.378Z,0.00
2019-01-15T04:34:11.387Z,0.00
2019-01-15T04:35:11.336Z,0.00
2019-01-15T04:36:11.309Z,0.00
2019-01-15T04:37:11.294Z,0.00
2019-01-15T04:38:11.292Z,0.00
2019-01-15T04:39:11.275Z,0.00
2019-01-15T04:40:11.283Z,0.00
2019-01-15T04:41:11.281Z,0.00
2019-01-15T04:42:11.240Z,0.00
2019-01-15T04:43:19.389Z,0.00
2019-01-15T04:44:12.280Z,0.00
2019-01-15T04:45:11.236Z,0.00
2019-01-15T04:46:11.195Z,0.00
2019-01-15T04:47:11.181Z,0.00
2019-01-15T04:48:11.180Z,0.00
2019-01-15T04:49:11.162Z,0.00
2019-01-15T04:50:11.185Z,0.00
2019-01-15T04:51:11.132Z,0.00
2019-01-15T04:52:11.137Z,0.00
2019-01-15T04:53:11.122Z,0.00
2019-01-15T04:54:11.116Z,0.00
2019-01-15T04:55:11.123Z,0.00
2019-01-15T04:56:11.094Z,0.00
2019-01-15T04:57:11.072Z,0.00
2019-01-15T04:58:11.109Z,0.00
2019-01-15T04:59:11.064Z,0.00
2019-01-15T05:00:11.074Z,0.00
2019-01-15T05:01:11.033Z,0.00
2019-01-15T05:02:11.012Z,0.00
2019-01-15T05:03:11.019Z,0.00
2019-01-15T05:04:11.002Z,0.00
2019-01-15T05:05:11.003Z,0.00
2019-01-15T05:06:10.976Z,0.00
2019-01-15T05:07:10.958Z,0.00
2019-01-15T05:08:10.943Z,0.00
2019-01-15T05:09:10.944Z,0.00
2019-01-15T05:10:10.941Z,0.00
2019-01-15T05:11:10.916Z,0.00
2019-01-15T05:12:10.903Z,0.00
2019-01-15T05:13:10.907Z,0.00
2019-01-15T05:14:10.873Z,0.00
2019-01-15T05:15:12.898Z,0.00
2019-01-15T05:16:10.853Z,0.00
2019-01-15T05:17:10.850Z,0.00
2019-01-15T05:18:10.854Z,0.00
2019-01-15T05:19:10.822Z,0.00
2019-01-15T05:20:10.849Z,0.00
2019-01-15T05:21:10.812Z,0.00
2019-01-15T05:22:10.799Z,0.00
2019-01-15T05:23:10.767Z,0.00
2019-01-15T05:24:10.777Z,0.00
2019-01-15T05:25:10.877Z,0.00
2019-01-15T05:26:10.753Z,0.00
2019-01-15T05:27:10.742Z,0.00
2019-01-15T05:28:10.743Z,0.00
2019-01-15T05:29:10.708Z,0.00
2019-01-15T05:30:10.707Z,0.00
2019-01-15T05:31:10.721Z,0.00
2019-01-15T05:32:10.670Z,0.00
2019-01-15T05:33:10.665Z,0.00
2019-01-15T05:34:10.652Z,0.00
2019-01-15T05:35:10.663Z,0.00
2019-01-15T05:36:10.657Z,0.00
2019-01-15T05:37:10.619Z,0.00
2019-01-15T05:38:10.620Z,0.00
2019-01-15T05:39:10.604Z,0.00
2019-01-15T05:40:10.580Z,0.00
2019-01-15T05:41:10.624Z,0.00
2019-01-15T05:42:10.575Z,0.00
2019-01-15T05:43:10.566Z,0.00
2019-01-15T05:44:10.539Z,0.00
2019-01-15T05:45:10.532Z,0.00
2019-01-15T05:46:10.553Z,0.00
2019-01-15T05:47:10.507Z,0.00
2019-01-15T05:48:10.524Z,0.00
2019-01-15T05:49:10.789Z,0.00
2019-01-15T05:50:10.468Z,0.00
2019-01-15T05:51:10.483Z,0.00
2019-01-15T05:52:10.458Z,0.00
2019-01-15T05:53:10.437Z,0.00
2019-01-15T05:54:10.420Z,0.00
2019-01-15T05:55:10.481Z,0.00
2019-01-15T05:56:10.417Z,0.00
2019-01-15T05:57:10.397Z,0.00
2019-01-15T05:58:10.377Z,0.00
2019-01-15T05:59:10.369Z,0.00
2019-01-15T06:00:10.354Z,0.00
2019-01-15T06:01:10.362Z,0.00
2019-01-15T06:02:10.354Z,0.00
2019-01-15T06:03:10.330Z,0.00
2019-01-15T06:04:10.307Z,0.00
2019-01-15T06:05:10.297Z,0.00
2019-01-15T06:06:10.322Z,0.00
2019-01-15T06:07:10.280Z,0.00
2019-01-15T06:08:10.261Z,0.00
2019-01-15T06:09:10.282Z,0.00
2019-01-15T06:10:10.239Z,0.00
2019-01-15T06:11:10.250Z,0.00
2019-01-15T06:12:10.233Z,0.00
2019-01-15T06:13:10.205Z,0.00
2019-01-15T06:14:10.193Z,0.00
2019-01-15T06:15:10.200Z,0.00
2019-01-15T06:16:10.197Z,0.00
2019-01-15T06:17:10.171Z,0.00
2019-01-15T06:18:10.160Z,0.00
2019-01-15T06:19:10.147Z,0.00
2019-01-15T06:20:10.147Z,0.00
2019-01-15T06:21:10.140Z,0.00
2019-01-15T06:22:10.109Z,0.00
2019-01-15T06:23:10.107Z,0.00
2019-01-15T06:24:10.080Z,0.00
2019-01-15T06:25:10.076Z,0.00
2019-01-15T06:26:10.092Z,0.00
2019-01-15T06:27:10.073Z,0.00
2019-01-15T06:28:10.043Z,0.00
2019-01-15T06:29:10.034Z,0.00
2019-01-15T06:30:10.009Z,0.00
2019-01-15T06:31:10.040Z,0.00
2019-01-15T06:32:10.004Z,0.00
2019-01-15T06:33:09.984Z,0.00
2019-01-15T06:34:10.070Z,0.00
2019-01-15T06:35:09.998Z,0.00
2019-01-15T06:36:10.479Z,0.00
2019-01-15T06:37:10.008Z,0.00
2019-01-15T06:38:09.940Z,0.00
2019-01-15T06:39:09.922Z,0.00
2019-01-15T06:40:09.901Z,0.00
2019-01-15T06:41:09.915Z,0.00
2019-01-15T06:42:09.875Z,0.00
2019-01-15T06:43:09.954Z,0.00
2019-01-15T06:44:09.894Z,0.00
2019-01-15T06:45:09.942Z,0.00
2019-01-15T06:46:09.858Z,4.00
2019-01-15T06:47:09.836Z,4.00
2019-01-15T06:48:09.830Z,4.00
2019-01-15T06:49:09.828Z,4.00
2019-01-15T06:50:09.809Z,4.00
2019-01-15T06:51:09.791Z,8.00
2019-01-15T06:52:09.793Z,8.00
2019-01-15T06:53:09.835Z,8.00
2019-01-15T06:54:09.791Z,8.00
2019-01-15T06:55:09.754Z,12.00
2019-01-15T06:56:09.768Z,16.00
2019-01-15T06:57:09.705Z,20.00
2019-01-15T06:58:09.703Z,20.00
2019-01-15T06:59:09.680Z,24.00
2019-01-15T07:00:09.680Z,28.00
2019-01-15T07:01:09.664Z,32.00
2019-01-15T07:02:09.654Z,40.00
2019-01-15T07:03:09.639Z,40.00
2019-01-15T07:04:09.633Z,48.00
2019-01-15T07:05:09.621Z,56.00
2019-01-15T07:06:09.617Z,60.00
2019-01-15T07:07:09.582Z,64.00
2019-01-15T07:08:09.575Z,68.00
2019-01-15T07:09:09.571Z,76.00
2019-01-15T07:10:09.627Z,88.00
2019-01-15T07:11:09.574Z,92.00
2019-01-15T07:12:09.563Z,96.00
2019-01-15T07:13:09.530Z,104.00
2019-01-15T07:14:09.504Z,112.00
2019-01-15T07:15:09.551Z,116.00
2019-01-15T07:16:09.536Z,124.00
2019-01-15T07:17:09.494Z,136.00
2019-01-15T07:18:09.470Z,144.00
2019-01-15T07:19:09.448Z,152.00
2019-01-15T07:20:09.494Z,164.00
2019-01-15T07:21:09.464Z,164.00
2019-01-15T07:22:09.421Z,180.00
2019-01-15T07:23:09.401Z,196.00
2019-01-15T07:24:09.411Z,212.00
2019-01-15T07:25:09.390Z,220.00
2019-01-15T07:26:09.410Z,232.00
2019-01-15T07:27:09.361Z,244.00
2019-01-15T07:28:09.398Z,260.00
2019-01-15T07:29:09.398Z,268.00
2019-01-15T07:30:09.344Z,292.00
2019-01-15T07:31:09.316Z,324.00
2019-01-15T07:32:09.355Z,352.00
2019-01-15T07:33:09.311Z,368.00
2019-01-15T07:34:09.312Z,392.00
2019-01-15T07:35:09.287Z,444.00
2019-01-15T07:36:09.269Z,480.00
2019-01-15T07:37:09.265Z,528.00
2019-01-15T07:38:09.306Z,528.00
2019-01-15T07:39:09.273Z,572.00
2019-01-15T07:40:09.222Z,576.00
2019-01-15T07:41:09.243Z,608.00
2019-01-15T07:42:09.235Z,592.00
2019-01-15T07:43:09.207Z,608.00
2019-01-15T07:44:09.192Z,620.00
2019-01-15T07:45:09.175Z,668.00
2019-01-15T07:46:09.936Z,700.00
2019-01-15T07:47:09.168Z,676.00
2019-01-15T07:48:09.146Z,652.00
2019-01-15T07:49:09.123Z,648.00
2019-01-15T07:50:09.113Z,660.00
2019-01-15T07:51:09.138Z,660.00
2019-01-15T07:52:09.101Z,692.00
2019-01-15T07:53:09.082Z,748.00
2019-01-15T07:54:09.094Z,768.00
2019-01-15T07:55:09.066Z,736.00
2019-01-15T07:56:09.049Z,756.00
2019-01-15T07:57:09.055Z,744.00
2019-01-15T07:58:09.022Z,756.00
2019-01-15T07:59:09.003Z,796.00
2019-01-15T08:00:08.994Z,804.00
2019-01-15T08:01:09.053Z,764.00
2019-01-15T08:02:08.987Z,760.00
2019-01-15T08:03:08.953Z,732.00
2019-01-15T08:04:08.950Z,756.00
2019-01-15T08:05:08.927Z,808.00
2019-01-15T08:06:08.943Z,800.00
2019-01-15T08:07:09.451Z,796.00
2019-01-15T08:08:08.940Z,784.00
2019-01-15T08:09:08.889Z,788.00
2019-01-15T08:10:08.877Z,808.00
2019-01-15T08:11:08.864Z,852.00
2019-01-15T08:12:08.867Z,740.00
2019-01-15T08:13:08.839Z,716.00
2019-01-15T08:14:12.132Z,776.00
2019-01-15T08:15:08.848Z,708.00
2019-01-15T08:16:08.813Z,740.00
2019-01-15T08:17:08.804Z,836.00
2019-01-15T08:18:08.777Z,1052.00
2019-01-15T08:19:08.773Z,1160.00
2019-01-15T08:20:08.767Z,1092.00
2019-01-15T08:21:08.775Z,1104.00
2019-01-15T08:22:08.764Z,1076.00
2019-01-15T08:23:08.735Z,1272.00
2019-01-15T08:24:08.715Z,1036.00
2019-01-15T08:25:08.711Z,1120.00
2019-01-15T08:26:08.696Z,916.00
2019-01-15T08:27:08.712Z,1124.00
2019-01-15T08:28:08.673Z,1320.00
2019-01-15T08:29:08.669Z,1576.00
2019-01-15T08:30:08.717Z,1656.00
2019-01-15T08:31:08.639Z,1644.00
2019-01-15T08:32:08.689Z,1700.00
2019-01-15T08:33:08.646Z,1480.00
2019-01-15T08:34:08.610Z,1832.00
2019-01-15T08:35:08.622Z,2012.00
2019-01-15T08:36:08.594Z,1844.00
2019-01-15T08:37:08.576Z,2144.00
2019-01-15T08:38:08.554Z,2012.00
2019-01-15T08:39:08.634Z,2080.00
2019-01-15T08:40:08.537Z,1976.00
2019-01-15T08:41:09.403Z,2116.00
2019-01-15T08:42:08.525Z,2100.00
2019-01-15T08:43:08.508Z,2164.00
2019-01-15T08:44:08.503Z,1840.00
2019-01-15T08:45:08.481Z,1864.00
2019-01-15T08:46:08.461Z,1600.00
2019-01-15T08:47:08.488Z,1680.00
2019-01-15T08:48:08.442Z,2032.00
2019-01-15T08:49:08.424Z,2060.00
2019-01-15T08:50:08.443Z,2104.00
2019-01-15T08:51:08.432Z,2496.00
2019-01-15T08:52:08.444Z,2632.00
2019-01-15T08:53:08.401Z,2400.00
2019-01-15T08:54:08.392Z,2048.00
2019-01-15T08:55:08.372Z,2212.00
2019-01-15T08:56:08.357Z,2032.00
2019-01-15T08:57:08.368Z,1620.00
2019-01-15T08:58:08.331Z,1308.00
2019-01-15T08:59:08.308Z,1512.00
2019-01-15T09:00:08.319Z,1884.00
2019-01-15T09:01:08.294Z,2076.00
2019-01-15T09:02:08.304Z,2100.00
2019-01-15T09:03:08.339Z,1780.00
2019-01-15T09:04:08.279Z,1628.00
2019-01-15T09:05:08.261Z,1856.00
2019-01-15T09:06:08.286Z,1884.00
2019-01-15T09:07:09.421Z,2324.00
2019-01-15T09:08:08.209Z,2292.00
2019-01-15T09:09:08.200Z,2276.00
2019-01-15T09:10:08.189Z,2544.00
2019-01-15T09:11:08.174Z,2136.00
2019-01-15T09:12:08.180Z,2472.00
2019-01-15T09:13:08.156Z,2392.00
2019-01-15T09:14:08.163Z,2192.00
2019-01-15T09:15:08.159Z,2140.00
2019-01-15T09:16:08.127Z,1912.00
2019-01-15T09:17:11.091Z,2108.00
2019-01-15T09:18:08.097Z,2384.00
2019-01-15T09:19:08.089Z,2584.00
2019-01-15T09:20:08.077Z,2644.00
2019-01-15T09:21:08.085Z,2636.00
2019-01-15T09:22:08.106Z,3028.00
2019-01-15T09:23:08.041Z,2804.00
2019-01-15T09:24:08.027Z,3008.00
2019-01-15T09:25:08.085Z,3188.00
2019-01-15T09:26:08.025Z,3748.00
2019-01-15T09:27:08.006Z,3184.00
2019-01-15T09:28:08.005Z,3456.00
2019-01-15T09:29:08.036Z,3836.00
2019-01-15T09:30:07.959Z,4040.00
2019-01-15T09:31:07.948Z,4016.00
2019-01-15T09:32:07.988Z,3524.00
2019-01-15T09:33:07.962Z,2872.00
2019-01-15T09:34:07.933Z,2476.00
2019-01-15T09:35:07.919Z,2356.00
2019-01-15T09:36:07.912Z,2420.00
2019-01-15T09:37:07.936Z,2464.00
2019-01-15T09:38:07.922Z,2612.00
2019-01-15T09:39:07.928Z,2604.00
2019-01-15T09:40:07.851Z,2840.00
2019-01-15T09:41:07.846Z,3304.00
2019-01-15T09:42:07.827Z,3924.00
2019-01-15T09:43:07.843Z,4356.00
2019-01-15T09:44:07.846Z,4800.00
2019-01-15T09:45:07.784Z,5024.00
2019-01-15T09:46:07.774Z,5212.00
2019-01-15T09:47:07.831Z,5004.00
2019-01-15T09:48:07.770Z,5168.00
2019-01-15T09:49:07.745Z,5148.00
2019-01-15T09:50:07.741Z,4968.00
2019-01-15T09:51:07.720Z,4508.00
2019-01-15T09:52:13.177Z,4188.00
2019-01-15T09:53:08.712Z,4140.00
2019-01-15T09:54:07.679Z,4084.00
2019-01-15T09:55:07.716Z,4140.00
2019-01-15T09:56:07.657Z,4320.00
2019-01-15T09:57:07.653Z,4160.00
2019-01-15T09:58:07.658Z,3768.00
2019-01-15T09:59:07.627Z,3452.00
2019-01-15T10:00:07.624Z,2960.00
2019-01-15T10:01:07.611Z,2584.00
2019-01-15T10:02:07.599Z,2444.00
2019-01-15T10:03:07.592Z,2640.00
2019-01-15T10:04:07.562Z,2960.00
2019-01-15T10:05:07.554Z,3956.00
2019-01-15T10:06:07.547Z,5340.00
2019-01-15T10:07:07.549Z,5648.00
2019-01-15T10:08:07.557Z,5044.00
2019-01-15T10:09:08.130Z,4064.00
2019-01-15T10:10:07.510Z,3208.00
2019-01-15T10:11:07.496Z,3116.00
2019-01-15T10:12:07.476Z,3288.00
2019-01-15T10:13:07.479Z,3428.00
2019-01-15T10:14:07.451Z,3284.00
2019-01-15T10:15:07.445Z,3284.00
2019-01-15T10:16:07.435Z,3208.00
2019-01-15T10:17:07.436Z,3344.00
2019-01-15T10:18:07.501Z,3384.00
2019-01-15T10:19:07.410Z,3316.00
2019-01-15T10:20:07.407Z,3560.00
2019-01-15T10:21:07.373Z,3136.00
2019-01-15T10:22:07.373Z,3084.00
2019-01-15T10:23:07.414Z,3584.00
2019-01-15T10:24:07.943Z,3544.00
2019-01-15T10:25:07.327Z,3500.00
2019-01-15T10:26:07.324Z,3864.00
2019-01-15T10:27:07.357Z,4164.00
2019-01-15T10:28:07.411Z,4724.00
2019-01-15T10:29:07.344Z,4724.00
2019-01-15T10:30:07.279Z,4700.00
2019-01-15T10:31:07.282Z,4772.00
2019-01-15T10:32:07.255Z,5076.00
2019-01-15T10:33:07.257Z,4992.00
2019-01-15T10:34:07.235Z,4596.00
2019-01-15T10:35:07.208Z,4148.00
2019-01-15T10:36:07.232Z,3792.00
2019-01-15T10:37:07.192Z,3724.00
2019-01-15T10:38:07.187Z,3312.00
2019-01-15T10:39:07.169Z,3356.00
2019-01-15T10:40:07.175Z,3804.00
2019-01-15T10:41:07.182Z,4184.00
2019-01-15T10:42:07.135Z,4616.00
2019-01-15T10:43:07.178Z,4924.00
2019-01-15T10:44:07.158Z,5004.00
2019-01-15T10:45:07.123Z,4960.00
2019-01-15T10:46:07.134Z,4420.00
2019-01-15T10:47:07.088Z,4068.00
2019-01-15T10:48:07.083Z,3756.00
2019-01-15T10:49:07.053Z,3608.00
2019-01-15T10:50:08.033Z,3580.00
2019-01-15T10:51:07.042Z,3452.00
2019-01-15T10:52:07.028Z,3420.00
2019-01-15T10:53:07.465Z,3312.00
2019-01-15T10:54:07.025Z,3136.00
2019-01-15T10:55:07.027Z,3056.00
2019-01-15T10:56:06.973Z,3048.00
2019-01-15T10:57:06.968Z,2952.00
2019-01-15T10:58:06.962Z,3068.00
2019-01-15T10:59:07.896Z,3116.00
2019-01-15T11:00:06.935Z,3228.00
2019-01-15T11:01:07.966Z,3312.00
2019-01-15T11:02:06.901Z,3188.00
2019-01-15T11:03:06.998Z,2948.00
2019-01-15T11:04:06.877Z,2892.00
2019-01-15T11:05:06.866Z,2800.00
2019-01-15T11:06:06.866Z,2688.00
2019-01-15T11:07:06.842Z,2804.00
2019-01-15T11:08:06.849Z,2944.00
2019-01-15T11:09:06.826Z,3128.00
2019-01-15T11:10:06.808Z,3280.00
2019-01-15T11:11:06.801Z,3308.00
2019-01-15T11:12:06.818Z,3500.00
2019-01-15T11:13:06.811Z,3624.00
2019-01-15T11:14:06.763Z,3636.00
2019-01-15T11:15:06.754Z,3620.00
2019-01-15T11:16:06.766Z,3576.00
2019-01-15T11:17:07.407Z,3516.00
2019-01-15T11:18:06.728Z,3508.00
2019-01-15T11:19:06.710Z,3608.00
2019-01-15T11:20:06.701Z,3832.00
2019-01-15T11:21:06.716Z,4100.00
2019-01-15T11:22:06.697Z,4112.00
2019-01-15T11:23:06.680Z,4064.00
2019-01-15T11:24:06.648Z,3932.00
2019-01-15T11:25:06.634Z,3828.00
2019-01-15T11:26:06.626Z,3756.00
2019-01-15T11:27:06.619Z,3524.00
2019-01-15T11:28:06.636Z,3288.00
2019-01-15T11:29:06.589Z,3240.00
2019-01-15T11:30:06.576Z,3336.00
2019-01-15T11:31:06.569Z,3388.00
2019-01-15T11:32:06.552Z,3244.00
2019-01-15T11:33:06.555Z,3048.00
2019-01-15T11:34:06.543Z,3272.00
2019-01-15T11:35:06.529Z,2860.00
2019-01-15T11:36:06.506Z,3012.00
2019-01-15T11:37:06.542Z,3020.00
2019-01-15T11:38:06.488Z,3052.00
2019-01-15T11:39:06.489Z,2920.00
2019-01-15T11:40:06.471Z,3504.00
2019-01-15T11:41:06.535Z,3544.00
2019-01-15T11:42:06.583Z,3612.00
2019-01-15T11:43:06.424Z,4356.00
2019-01-15T11:44:06.456Z,3972.00
2019-01-15T11:45:06.416Z,3116.00
2019-01-15T11:46:06.422Z,3100.00
2019-01-15T11:47:06.389Z,2868.00
2019-01-15T11:48:06.424Z,3240.00
2019-01-15T11:49:06.423Z,3232.00
2019-01-15T11:50:06.588Z,2440.00
2019-01-15T11:51:06.401Z,2448.00
2019-01-15T11:52:06.334Z,2436.00
2019-01-15T11:53:06.377Z,2660.00
2019-01-15T11:54:13.143Z,2516.00
2019-01-15T11:55:14.029Z,2848.00
2019-01-15T11:56:40.643Z,2292.00
2019-01-15T11:58:35.046Z,2428.00
2019-01-15T11:59:18.291Z,2204.00
2019-01-15T12:00:19.281Z,2500.00
2019-01-15T12:01:18.120Z,2484.00
2019-01-15T12:02:22.170Z,2620.00
2019-01-15T12:03:18.102Z,2084.00
2019-01-15T12:04:19.173Z,2744.00
2019-01-15T12:05:18.091Z,2768.00
2019-01-15T12:06:18.065Z,2460.00
2019-01-15T12:07:18.064Z,2712.00
2019-01-15T12:08:19.126Z,2580.00
2019-01-15T12:09:18.069Z,2640.00
2019-01-15T12:10:18.124Z,2768.00
2019-01-15T12:11:17.995Z,2852.00
2019-01-15T12:12:18.006Z,3164.00
2019-01-15T12:13:18.061Z,3040.00
2019-01-15T12:14:17.998Z,2904.00
2019-01-15T12:15:18.090Z,2696.00
2019-01-15T12:16:17.959Z,2832.00
2019-01-15T12:17:18.018Z,2800.00
2019-01-15T12:18:17.939Z,2964.00
2019-01-15T12:19:18.010Z,3064.00
2019-01-15T12:20:17.908Z,3216.00
2019-01-15T12:21:17.991Z,3328.00
2019-01-15T12:22:17.896Z,3468.00
2019-01-15T12:23:18.037Z,3636.00
2019-01-15T12:24:17.881Z,3728.00
2019-01-15T12:25:17.981Z,3604.00
2019-01-15T12:26:17.841Z,3616.00
2019-01-15T12:27:17.920Z,3504.00
2019-01-15T12:28:17.823Z,3516.00
2019-01-15T12:29:17.834Z,3536.00
2019-01-15T12:30:17.803Z,3476.00
2019-01-15T12:31:17.873Z,3204.00
2019-01-15T12:32:17.785Z,2960.00
2019-01-15T12:33:17.915Z,3044.00
2019-01-15T12:34:17.774Z,2920.00
2019-01-15T12:35:17.747Z,2776.00
2019-01-15T12:36:17.736Z,2684.00
2019-01-15T12:37:18.791Z,2552.00
2019-01-15T12:38:17.708Z,2408.00
2019-01-15T12:39:18.786Z,2468.00
2019-01-15T12:40:17.688Z,2548.00
2019-01-15T12:41:17.649Z,2580.00
2019-01-15T12:42:17.719Z,2540.00
2019-01-15T12:43:17.648Z,2536.00
2019-01-15T12:44:20.878Z,2364.00
2019-01-15T12:45:18.345Z,2116.00
2019-01-15T12:46:17.662Z,1948.00
2019-01-15T12:47:17.608Z,1904.00